createdAt,value
2022-12-16T00:00:03.120Z,100437.67
2022-12-16T00:02:55.436Z,100434.61
2022-12-16T00:05:25.921Z,100432.97
2022-12-16T00:07:57.253Z,100434.09
2022-12-16T00:10:48.123Z,100434.07
2022-12-16T00:13:18.616Z,100436.36
2022-12-16T00:15:49.169Z,100429.80
2022-12-16T00:18:21.312Z,100429.73
2022-12-16T00:20:55.546Z,100436.92
2022-12-16T00:23:26.070Z,100442.19
2022-12-16T00:25:56.741Z,100440.48
2022-12-16T00:28:27.479Z,100446.64
2022-12-16T00:30:58.807Z,100448.48
2022-12-16T00:33:33.649Z,100447.71
2022-12-16T00:36:04.475Z,100445.23
2022-12-16T00:38:35.172Z,100447.31
2022-12-16T00:41:05.846Z,100450.09
2022-12-16T00:43:36.610Z,100450.48
2022-12-16T00:46:07.965Z,100451.23
2022-12-16T00:48:38.916Z,100456.10
2022-12-16T00:51:09.434Z,100463.30
2022-12-16T00:53:40.150Z,100466.34
2022-12-16T00:56:15.000Z,100462.64
2022-12-16T00:58:45.607Z,100464.09
2022-12-16T01:01:16.222Z,100465.30
2022-12-16T01:03:46.868Z,100469.83
2022-12-16T01:06:19.853Z,100470.98
2022-12-16T01:08:50.254Z,100471.56
2022-12-16T01:11:22.319Z,100468.24
2022-12-16T01:13:55.228Z,100475.48
2022-12-16T01:16:25.895Z,100475.85
2022-12-16T01:18:56.943Z,100467.20
2022-12-16T01:21:27.410Z,100469.68
2022-12-16T01:23:59.850Z,100467.09
2022-12-16T01:26:30.233Z,100470.56
2022-12-16T01:29:00.761Z,100477.55
2022-12-16T01:31:31.279Z,100479.86
2022-12-16T01:34:01.738Z,100480.02
2022-12-16T01:36:32.341Z,100488.00
2022-12-16T01:39:02.906Z,100490.45
2022-12-16T01:41:33.533Z,100489.45
2022-12-16T01:44:22.422Z,100494.63
2022-12-16T01:46:57.991Z,100490.91
2022-12-16T01:49:35.920Z,100492.60
2022-12-16T01:52:10.865Z,100488.39
2022-12-16T01:54:54.112Z,100487.76
2022-12-16T01:57:34.401Z,100485.60
2022-12-16T02:00:07.614Z,100484.16
2022-12-16T02:02:47.413Z,100481.97
2022-12-16T02:05:23.670Z,100477.59
2022-12-16T02:08:12.554Z,100474.98
2022-12-16T02:10:44.335Z,100472.97
2022-12-16T02:13:21.073Z,100474.14
2022-12-16T02:16:15.295Z,100470.49
2022-12-16T02:18:57.432Z,100467.42
2022-12-16T02:21:39.864Z,100464.73
2022-12-16T02:24:31.121Z,100460.04
2022-12-16T02:27:04.171Z,100452.00
2022-12-16T02:29:46.907Z,100458.09
2022-12-16T02:32:28.781Z,100454.27
2022-12-16T02:35:14.006Z,100451.14
2022-12-16T02:37:58.328Z,100452.67
2022-12-16T02:40:37.212Z,100454.17
2022-12-16T02:43:53.794Z,100454.61
2022-12-16T02:46:29.106Z,100461.98
2022-12-16T02:49:07.996Z,100460.61
2022-12-16T02:51:41.716Z,100456.57
2022-12-16T02:54:13.742Z,100454.13
2022-12-16T02:56:47.011Z,100453.77
2022-12-16T02:59:33.200Z,100450.69
2022-12-16T03:02:32.867Z,100452.50
2022-12-16T03:05:25.133Z,100451.23
2022-12-16T03:07:59.093Z,100448.41
2022-12-16T03:10:33.693Z,100450.94
2022-12-16T03:13:06.983Z,100449.50
2022-12-16T03:15:38.544Z,100448.42
2022-12-16T03:18:13.693Z,100444.66
2022-12-16T03:21:06.996Z,100448.60
2022-12-16T03:23:52.926Z,100444.89
2022-12-16T03:26:34.850Z,100439.30
2022-12-16T03:29:13.388Z,100430.13
2022-12-16T03:31:47.207Z,100427.30
2022-12-16T03:34:37.257Z,100429.37
2022-12-16T03:37:09.600Z,100425.81
2022-12-16T03:39:53.781Z,100423.56
2022-12-16T03:42:28.295Z,100418.41
2022-12-16T03:44:59.171Z,100410.88
2022-12-16T03:47:32.626Z,100410.95
2022-12-16T03:50:03.042Z,100416.30
2022-12-16T03:52:33.684Z,100413.34
2022-12-16T03:55:04.312Z,100408.13
2022-12-16T03:57:34.703Z,100403.70
2022-12-16T04:00:06.481Z,100402.16
2022-12-16T04:02:42.062Z,100398.30
2022-12-16T04:05:13.017Z,100390.55
2022-12-16T04:07:43.607Z,100385.46
2022-12-16T04:10:14.143Z,100387.16
2022-12-16T04:13:16.508Z,100384.13
2022-12-16T04:16:04.301Z,100387.77
2022-12-16T04:18:52.762Z,100389.45
2022-12-16T04:21:40.233Z,100385.80
2022-12-16T04:24:21.200Z,100387.29
2022-12-16T04:27:15.062Z,100386.84
2022-12-16T04:30:04.043Z,100394.08
2022-12-16T04:32:54.878Z,100393.69
2022-12-16T04:35:42.380Z,100387.73
2022-12-16T04:38:30.431Z,100381.30
2022-12-16T04:41:18.394Z,100387.17
2022-12-16T04:44:07.090Z,100390.61
2022-12-16T04:46:51.353Z,100395.68
2022-12-16T04:49:39.022Z,100390.80
2022-12-16T04:52:27.282Z,100401.04
2022-12-16T04:55:15.230Z,100404.49
2022-12-16T04:58:14.138Z,100403.04
2022-12-16T05:01:02.138Z,100395.84
2022-12-16T05:03:49.975Z,100394.24
2022-12-16T05:06:38.315Z,100394.92
2022-12-16T05:09:31.951Z,100391.42
2022-12-16T05:12:19.541Z,100397.05
2022-12-16T05:15:07.358Z,100398.49
2022-12-16T05:17:54.992Z,100399.59
2022-12-16T05:20:42.235Z,100401.73
2022-12-16T05:23:29.757Z,100393.81
2022-12-16T05:26:18.221Z,100384.89
2022-12-16T05:29:05.662Z,100390.42
2022-12-16T05:31:52.773Z,100394.16
2022-12-16T05:34:40.205Z,100395.66
2022-12-16T05:37:27.922Z,100394.94
2022-12-16T05:40:15.314Z,100389.94
2022-12-16T05:43:08.161Z,100386.58
2022-12-16T05:45:58.371Z,100388.73
2022-12-16T05:48:47.881Z,100382.28
2022-12-16T05:51:35.533Z,100378.96
2022-12-16T05:54:23.473Z,100382.89
2022-12-16T05:57:10.724Z,100386.96
2022-12-16T05:59:58.732Z,100391.73
2022-12-16T06:03:04.555Z,100400.29
2022-12-16T06:05:52.230Z,100408.49
2022-12-16T06:08:40.045Z,100405.27
2022-12-16T06:11:39.560Z,100403.11
2022-12-16T06:14:27.600Z,100403.80
2022-12-16T06:17:20.401Z,100402.84
2022-12-16T06:20:07.957Z,100412.40
2022-12-16T06:22:55.249Z,100419.34
2022-12-16T06:25:42.781Z,100438.27
2022-12-16T06:28:30.033Z,100444.48
2022-12-16T06:31:20.572Z,100452.95
2022-12-16T06:34:08.420Z,100453.85
2022-12-16T06:36:56.404Z,100454.81
2022-12-16T06:39:48.736Z,100454.20
2022-12-16T06:42:40.500Z,100450.63
2022-12-16T06:45:34.343Z,100456.02
2022-12-16T06:48:22.981Z,100457.08
2022-12-16T06:51:10.252Z,100457.52
2022-12-16T06:53:58.118Z,100461.92
2022-12-16T06:56:45.379Z,100469.86
2022-12-16T06:59:47.355Z,100470.23
2022-12-16T07:02:34.750Z,100470.29
2022-12-16T07:05:23.095Z,100476.96
2022-12-16T07:08:11.517Z,100477.04
2022-12-16T07:11:13.634Z,100484.02
2022-12-16T07:14:03.719Z,100489.76
2022-12-16T07:16:51.556Z,100496.36
2022-12-16T07:19:38.993Z,100496.70
2022-12-16T07:22:27.052Z,100499.79
2022-12-16T07:25:14.465Z,100507.70
2022-12-16T07:28:08.290Z,100507.63
2022-12-16T07:31:02.401Z,100509.83
2022-12-16T07:33:49.843Z,100513.83
2022-12-16T07:36:37.093Z,100514.21
2022-12-16T07:39:25.299Z,100519.80
2022-12-16T07:42:12.943Z,100525.27
2022-12-16T07:45:00.232Z,100522.89
2022-12-16T07:47:47.821Z,100527.03
2022-12-16T07:50:35.463Z,100522.79
2022-12-16T07:53:31.294Z,100522.90
2022-12-16T07:56:19.012Z,100529.56
2022-12-16T07:59:06.951Z,100528.39
2022-12-16T08:01:54.762Z,100531.47
2022-12-16T08:04:43.385Z,100527.52
2022-12-16T08:07:31.702Z,100525.91
2022-12-16T08:10:18.814Z,100526.17
2022-12-16T08:13:06.734Z,100523.82
2022-12-16T08:15:54.053Z,100517.20
2022-12-16T08:18:41.692Z,100512.30
2022-12-16T08:21:29.150Z,100517.64
2022-12-16T08:24:17.152Z,100525.37
2022-12-16T08:27:04.544Z,100528.20
2022-12-16T08:29:52.070Z,100526.50
2022-12-16T08:32:39.881Z,100526.23
2022-12-16T08:35:27.640Z,100530.14
2022-12-16T08:38:16.731Z,100528.98
2022-12-16T08:41:04.463Z,100530.55
2022-12-16T08:43:55.359Z,100534.14
2022-12-16T08:46:43.352Z,100538.48
2022-12-16T08:49:31.060Z,100533.48
2022-12-16T08:52:18.434Z,100533.44
2022-12-16T08:55:05.879Z,100529.84
2022-12-16T08:57:54.267Z,100527.48
2022-12-16T09:00:42.496Z,100524.15
2022-12-16T09:03:33.146Z,100522.90
2022-12-16T09:06:20.030Z,100518.77
2022-12-16T09:09:07.221Z,100519.39
2022-12-16T09:11:55.266Z,100514.30
2022-12-16T09:14:51.975Z,100510.71
2022-12-16T09:17:39.383Z,100501.92
2022-12-16T09:20:27.639Z,100499.35
2022-12-16T09:23:15.006Z,100495.72
2022-12-16T09:26:02.562Z,100490.27
2022-12-16T09:28:49.864Z,100483.38
2022-12-16T09:31:37.385Z,100482.17
2022-12-16T09:34:27.691Z,100472.87
2022-12-16T09:37:15.302Z,100467.39
2022-12-16T09:40:02.494Z,100460.24
2022-12-16T09:43:12.133Z,100458.81
2022-12-16T09:46:14.157Z,100453.45
2022-12-16T09:49:18.796Z,100447.94
2022-12-16T09:52:06.969Z,100444.00
2022-12-16T09:54:58.692Z,100445.88
2022-12-16T09:57:51.672Z,100439.44
2022-12-16T10:00:47.764Z,100427.13
2022-12-16T10:03:57.005Z,100419.04
2022-12-16T10:07:07.903Z,100409.82
2022-12-16T10:10:09.604Z,100406.02
2022-12-16T10:13:21.446Z,100405.31
2022-12-16T10:16:25.643Z,100417.09
2022-12-16T10:19:23.675Z,100418.92
2022-12-16T10:22:46.632Z,100415.55
2022-12-16T10:25:42.681Z,100409.42
2022-12-16T10:28:43.791Z,100405.81
2022-12-16T10:31:36.345Z,100407.05
2022-12-16T10:34:33.807Z,100409.83
2022-12-16T10:37:21.588Z,100416.83
2022-12-16T10:40:18.628Z,100423.55
2022-12-16T10:43:22.547Z,100427.55
2022-12-16T10:46:13.252Z,100428.27
2022-12-16T10:49:01.408Z,100424.97
2022-12-16T10:51:49.595Z,100427.54
2022-12-16T10:54:39.954Z,100427.91
2022-12-16T10:57:47.922Z,100426.33
2022-12-16T11:00:39.342Z,100426.46
2022-12-16T11:03:45.583Z,100424.14
2022-12-16T11:06:42.456Z,100423.37
2022-12-16T11:09:51.053Z,100422.50
2022-12-16T11:12:44.067Z,100416.65
2022-12-16T11:15:50.209Z,100422.34
2022-12-16T11:18:41.402Z,100426.19
2022-12-16T11:21:33.290Z,100427.96
2022-12-16T11:24:30.168Z,100431.14
2022-12-16T11:27:23.983Z,100434.80
2022-12-16T11:30:17.299Z,100436.27
2022-12-16T11:33:10.461Z,100438.52
2022-12-16T11:36:24.163Z,100445.80
2022-12-16T11:39:12.225Z,100445.41
2022-12-16T11:42:14.352Z,100450.11
2022-12-16T11:45:06.355Z,100453.20
2022-12-16T11:48:12.682Z,100457.09
2022-12-16T11:51:09.603Z,100460.20
2022-12-16T11:54:39.252Z,100462.67
2022-12-16T11:57:47.704Z,100465.59
2022-12-16T12:00:36.463Z,100466.29
2022-12-16T12:03:35.765Z,100467.30
2022-12-16T12:06:33.548Z,100471.05
2022-12-16T12:09:41.258Z,100473.73
2022-12-16T12:12:42.064Z,100474.82
2022-12-16T12:15:48.062Z,100469.51
2022-12-16T12:19:01.882Z,100468.55
2022-12-16T12:22:00.089Z,100456.76
2022-12-16T12:25:08.143Z,100453.39
2022-12-16T12:28:07.477Z,100449.13
2022-12-16T12:31:03.989Z,100447.63
2022-12-16T12:34:14.114Z,100447.73
2022-12-16T12:37:08.445Z,100448.52
2022-12-16T12:40:12.343Z,100448.91
2022-12-16T12:43:09.458Z,100450.45
2022-12-16T12:46:23.153Z,100456.76
2022-12-16T12:49:15.045Z,100459.23
2022-12-16T12:52:14.163Z,100468.80
2022-12-16T12:55:19.997Z,100467.88
2022-12-16T12:58:09.507Z,100472.11
2022-12-16T13:05:31.692Z,100478.33
2022-12-16T13:09:10.994Z,100472.90
2022-12-16T13:12:39.198Z,100473.55
2022-12-16T13:15:30.425Z,100475.38
2022-12-16T13:18:26.279Z,100473.83
2022-12-16T13:21:17.536Z,100478.00
2022-12-16T13:24:05.862Z,100474.29
2022-12-16T13:26:53.919Z,100476.61
2022-12-16T13:29:46.444Z,100484.14
2022-12-16T13:32:44.355Z,100483.11
2022-12-16T13:35:31.603Z,100491.81
2022-12-16T13:38:36.156Z,100491.56
2022-12-16T13:41:46.112Z,100497.02
2022-12-16T13:45:02.483Z,100499.90
2022-12-16T13:48:01.930Z,100505.11
2022-12-16T13:51:01.350Z,100501.72
2022-12-16T13:53:52.824Z,100504.92
2022-12-16T13:56:48.280Z,100506.24
2022-12-16T13:59:45.152Z,100501.98
2022-12-16T14:02:52.079Z,100497.04
2022-12-16T14:05:47.671Z,100493.29
2022-12-16T14:08:38.355Z,100487.10
2022-12-16T14:11:52.112Z,100493.78
2022-12-16T14:14:50.151Z,100500.91
2022-12-16T14:17:52.500Z,100502.50
2022-12-16T14:20:51.543Z,100504.37
2022-12-16T14:23:58.571Z,100503.65
2022-12-16T14:26:46.700Z,100511.64
2022-12-16T14:29:54.429Z,100511.60
2022-12-16T14:32:48.117Z,100514.59
2022-12-16T14:35:41.732Z,100517.16
2022-12-16T14:38:50.222Z,100522.51
2022-12-16T14:41:43.781Z,100527.19
2022-12-16T14:44:39.811Z,100530.15
2022-12-16T14:47:39.201Z,100531.17
2022-12-16T14:50:48.845Z,100538.35
2022-12-16T14:53:39.859Z,100546.88
2022-12-16T14:56:34.400Z,100552.65
2022-12-16T14:59:38.796Z,100551.52
2022-12-16T15:02:47.593Z,100554.79
2022-12-16T15:05:36.623Z,100562.35
2022-12-16T15:08:25.247Z,100562.86
2022-12-16T15:11:12.896Z,100565.16
2022-12-16T15:14:04.137Z,100563.69
2022-12-16T15:16:55.461Z,100564.20
2022-12-16T15:19:44.758Z,100564.53
2022-12-16T15:22:35.990Z,100561.08
2022-12-16T15:25:24.269Z,100560.98
2022-12-16T15:28:15.967Z,100563.62
2022-12-16T15:35:26.663Z,100571.52
2022-12-16T15:38:52.723Z,100567.33
2022-12-16T15:41:50.010Z,100565.23
2022-12-16T15:45:59.781Z,100572.18
2022-12-16T15:48:50.737Z,100567.41
2022-12-16T15:52:01.300Z,100569.73
2022-12-16T15:54:51.781Z,100567.42
2022-12-16T15:57:58.070Z,100569.64
2022-12-16T16:00:50.954Z,100576.06
2022-12-16T16:03:46.182Z,100581.77
2022-12-16T16:06:45.573Z,100580.17
2022-12-16T16:09:41.077Z,100576.99
2022-12-16T16:12:30.393Z,100583.33
2022-12-16T16:15:23.559Z,100590.31
2022-12-16T16:18:17.318Z,100596.56
2022-12-16T16:21:05.735Z,100601.18
2022-12-16T16:24:03.131Z,100604.21
2022-12-16T16:26:50.712Z,100597.33
2022-12-16T16:29:38.086Z,100596.67
2022-12-16T16:32:28.272Z,100596.09
2022-12-16T16:35:15.740Z,100595.92
2022-12-16T16:38:06.280Z,100600.35
2022-12-16T16:40:59.364Z,100602.94
2022-12-16T16:43:48.214Z,100603.66
2022-12-16T16:46:38.819Z,100606.59
2022-12-16T16:49:30.502Z,100602.42
2022-12-16T16:52:29.585Z,100604.63
2022-12-16T16:55:17.561Z,100606.95
2022-12-16T16:58:05.551Z,100610.54
2022-12-16T17:05:24.391Z,100622.48
2022-12-16T17:08:12.721Z,100624.03
2022-12-16T17:11:01.078Z,100623.39
2022-12-16T17:13:50.366Z,100625.85
2022-12-16T17:16:38.544Z,100622.80
2022-12-16T17:19:26.633Z,100628.08
2022-12-16T17:22:16.339Z,100629.36
2022-12-16T17:25:05.382Z,100630.81
2022-12-16T17:27:56.232Z,100628.83
2022-12-16T17:30:50.754Z,100629.60
2022-12-16T17:33:39.395Z,100635.66
2022-12-16T17:36:46.028Z,100641.35
2022-12-16T17:39:34.508Z,100640.85
2022-12-16T17:42:22.223Z,100641.78
2022-12-16T17:49:45.000Z,100641.10
2022-12-16T17:52:34.515Z,100641.58
2022-12-16T17:55:22.292Z,100641.20
2022-12-16T17:58:10.395Z,100643.26
2022-12-16T18:01:01.986Z,100638.79
2022-12-16T18:03:54.612Z,100646.39
2022-12-16T18:06:45.201Z,100649.52
2022-12-16T18:09:36.168Z,100647.59
2022-12-16T18:12:27.270Z,100648.66
2022-12-16T18:19:54.015Z,100651.48
2022-12-16T18:22:45.240Z,100659.56
2022-12-16T18:25:34.794Z,100658.67
2022-12-16T18:28:24.702Z,100658.02
2022-12-16T18:31:16.040Z,100657.54
2022-12-16T18:34:06.348Z,100657.29
2022-12-16T18:36:57.457Z,100658.64
2022-12-16T18:39:48.527Z,100660.64
2022-12-16T18:42:40.514Z,100658.36
2022-12-16T18:45:31.481Z,100658.52
2022-12-16T18:57:23.400Z,100655.80
2022-12-16T19:06:51.746Z,100658.27
2022-12-16T19:09:40.624Z,100666.53
2022-12-16T19:12:29.596Z,100670.31
2022-12-16T19:15:18.166Z,100665.95
2022-12-16T19:18:05.696Z,100676.31
2022-12-16T19:20:53.620Z,100682.57
2022-12-16T19:23:40.946Z,100685.67
2022-12-16T19:26:32.759Z,100689.52
2022-12-16T19:29:25.446Z,100691.36
2022-12-16T19:32:31.717Z,100692.59
2022-12-16T19:35:20.004Z,100693.38
2022-12-16T19:38:08.058Z,100690.89
2022-12-16T19:41:11.394Z,100695.55
2022-12-16T19:44:05.454Z,100703.68
2022-12-16T19:46:56.115Z,100701.67
2022-12-16T19:52:56.004Z,100711.83
2022-12-16T19:55:47.828Z,100717.92
2022-12-16T19:58:43.017Z,100722.24
2022-12-16T20:01:31.226Z,100731.98
2022-12-16T20:04:19.455Z,100737.60
2022-12-16T20:07:10.090Z,100739.55
2022-12-16T20:09:58.779Z,100739.21
2022-12-16T20:12:54.067Z,100742.57
2022-12-16T20:16:28.652Z,100744.13
2022-12-16T20:19:17.150Z,100744.23
2022-12-16T20:22:08.897Z,100751.52
2022-12-16T20:26:21.097Z,100759.79
2022-12-16T20:29:09.311Z,100764.64
2022-12-16T20:32:05.277Z,100763.00
2022-12-16T20:34:55.395Z,100760.30
2022-12-16T20:37:46.023Z,100757.95
2022-12-16T20:40:36.089Z,100760.69
2022-12-16T20:43:25.858Z,100765.59
2022-12-16T20:46:14.646Z,100772.00
2022-12-16T20:49:07.483Z,100774.63
2022-12-16T20:52:00.005Z,100779.59
2022-12-16T20:54:51.814Z,100782.70
2022-12-16T20:57:50.455Z,100788.17
2022-12-16T21:00:46.706Z,100789.70
2022-12-16T21:03:44.777Z,100792.89
2022-12-16T21:06:33.739Z,100794.05
2022-12-16T21:13:51.952Z,100808.38
2022-12-16T21:16:40.020Z,100817.35
2022-12-16T21:19:33.531Z,100819.11
2022-12-16T21:22:21.897Z,100820.35
2022-12-16T21:25:24.448Z,100822.16
2022-12-16T21:32:31.032Z,100816.92
2022-12-16T21:35:37.985Z,100811.29
2022-12-16T21:38:32.444Z,100812.81
2022-12-16T21:41:43.855Z,100814.61
2022-12-16T21:46:38.948Z,100817.04
2022-12-16T21:49:26.741Z,100812.17
2022-12-16T21:52:14.614Z,100813.46
2022-12-16T21:55:10.865Z,100815.16
2022-12-16T21:57:58.224Z,100821.87
2022-12-16T22:00:45.818Z,100821.47
2022-12-16T22:08:58.692Z,100834.06
2022-12-16T22:11:59.996Z,100844.89
2022-12-16T22:14:50.827Z,100843.30
2022-12-16T22:17:39.778Z,100848.95
2022-12-16T22:33:34.972Z,100864.66
2022-12-16T22:36:20.383Z,100706.09
2022-12-16T22:36:24.600Z,100868.11
2022-12-16T22:39:11.998Z,100866.27
2022-12-16T22:41:59.130Z,100864.41
2022-12-16T22:44:48.832Z,100867.98
2022-12-16T22:47:40.252Z,100873.48
2022-12-16T22:50:28.037Z,100873.59
2022-12-16T22:53:15.234Z,100877.02
2022-12-16T22:56:10.358Z,100882.76
2022-12-16T22:59:09.736Z,100887.95
2022-12-16T23:01:57.350Z,100889.23
2022-12-16T23:04:47.936Z,100891.19
2022-12-16T23:07:36.731Z,100888.41
2022-12-16T23:10:24.323Z,100885.42
2022-12-16T23:13:11.700Z,100890.90
2022-12-16T23:15:58.985Z,100889.51
2022-12-16T23:18:46.289Z,100887.88
2022-12-16T23:21:36.016Z,100891.20
2022-12-16T23:24:25.811Z,100894.11
2022-12-16T23:27:22.017Z,100891.83
2022-12-16T23:30:10.893Z,100888.83
2022-12-16T23:33:00.852Z,100887.50
2022-12-16T23:35:48.202Z,100892.23
2022-12-16T23:38:35.413Z,100895.36
2022-12-16T23:41:23.303Z,100903.94
2022-12-16T23:44:10.717Z,100910.89
2022-12-16T23:46:58.090Z,100907.23
2022-12-16T23:49:45.402Z,100911.73
2022-12-16T23:52:35.122Z,100913.25
2022-12-16T23:55:22.943Z,100912.77
2022-12-16T23:58:30.625Z,100912.13
